sensor_id;sensor_type;location;lat;lon;timestamp;P1;durP1;ratioP1;P2;durP2;ratioP2
77276;SDS011;66330;52.166;9.978;2023-01-28T00:01:49;2.43;;;1.40;;
77276;SDS011;66330;52.166;9.978;2023-01-28T00:04:14;2.30;;;1.03;;
77276;SDS011;66330;52.166;9.978;2023-01-28T00:06:40;1.70;;;0.97;;
77276;SDS011;66330;52.166;9.978;2023-01-28T00:09:06;4.50;;;1.17;;
77276;SDS011;66330;52.166;9.978;2023-01-28T00:11:32;1.83;;;1.73;;
77276;SDS011;66330;52.166;9.978;2023-01-28T00:13:58;1.30;;;1.20;;
77276;SDS011;66330;52.166;9.978;2023-01-28T00:16:23;1.50;;;1.10;;
77276;SDS011;66330;52.166;9.978;2023-01-28T00:18:51;1.43;;;1.33;;
77276;SDS011;66330;52.166;9.978;2023-01-28T00:21:17;1.47;;;1.37;;
77276;SDS011;66330;52.166;9.978;2023-01-28T00:23:46;2.50;;;1.40;;
77276;SDS011;66330;52.166;9.978;2023-01-28T00:26:15;2.33;;;1.40;;
77276;SDS011;66330;52.166;9.978;2023-01-28T00:28:41;1.60;;;1.50;;
77276;SDS011;66330;52.166;9.978;2023-01-28T00:31:08;1.93;;;1.73;;
77276;SDS011;66330;52.166;9.978;2023-01-28T00:33:44;2.07;;;1.40;;
77276;SDS011;66330;52.166;9.978;2023-01-28T00:36:11;1.40;;;1.30;;
77276;SDS011;66330;52.166;9.978;2023-01-28T00:38:38;1.37;;;1.27;;
77276;SDS011;66330;52.166;9.978;2023-01-28T00:41:16;1.33;;;1.10;;
77276;SDS011;66330;52.166;9.978;2023-01-28T00:43:42;1.33;;;1.10;;
77276;SDS011;66330;52.166;9.978;2023-01-28T00:46:10;2.07;;;1.10;;
77276;SDS011;66330;52.166;9.978;2023-01-28T00:48:36;2.07;;;1.23;;
77276;SDS011;66330;52.166;9.978;2023-01-28T00:51:03;3.97;;;1.30;;
77276;SDS011;66330;52.166;9.978;2023-01-28T00:53:29;1.17;;;1.07;;
77276;SDS011;66330;52.166;9.978;2023-01-28T00:55:55;2.97;;;2.67;;
77276;SDS011;66330;52.166;9.978;2023-01-28T00:58:20;1.97;;;1.33;;
77276;SDS011;66330;52.166;9.978;2023-01-28T01:00:48;3.57;;;1.10;;
77276;SDS011;66330;52.166;9.978;2023-01-28T01:03:14;1.50;;;1.10;;
77276;SDS011;66330;52.166;9.978;2023-01-28T01:05:40;2.87;;;1.00;;
77276;SDS011;66330;52.166;9.978;2023-01-28T01:08:05;1.27;;;0.87;;
77276;SDS011;66330;52.166;9.978;2023-01-28T01:10:31;3.10;;;1.10;;
77276;SDS011;66330;52.166;9.978;2023-01-28T01:12:56;1.80;;;1.60;;
77276;SDS011;66330;52.166;9.978;2023-01-28T01:15:23;2.60;;;0.80;;
77276;SDS011;66330;52.166;9.978;2023-01-28T01:17:48;3.80;;;1.23;;
77276;SDS011;66330;52.166;9.978;2023-01-28T01:20:22;1.60;;;0.90;;
77276;SDS011;66330;52.166;9.978;2023-01-28T01:22:50;1.53;;;0.77;;
77276;SDS011;66330;52.166;9.978;2023-01-28T01:25:16;2.00;;;1.30;;
77276;SDS011;66330;52.166;9.978;2023-01-28T01:27:43;1.23;;;1.13;;
77276;SDS011;66330;52.166;9.978;2023-01-28T01:30:12;1.90;;;1.00;;
77276;SDS011;66330;52.166;9.978;2023-01-28T01:32:38;3.33;;;0.97;;
77276;SDS011;66330;52.166;9.978;2023-01-28T01:35:04;0.80;;;0.77;;
77276;SDS011;66330;52.166;9.978;2023-01-28T01:37:32;2.43;;;1.00;;
77276;SDS011;66330;52.166;9.978;2023-01-28T01:39:58;1.27;;;0.87;;
77276;SDS011;66330;52.166;9.978;2023-01-28T01:42:26;2.03;;;1.07;;
77276;SDS011;66330;52.166;9.978;2023-01-28T01:44:56;1.33;;;0.80;;
77276;SDS011;66330;52.166;9.978;2023-01-28T01:47:44;0.97;;;0.80;;
77276;SDS011;66330;52.166;9.978;2023-01-28T01:50:23;2.40;;;0.90;;
77276;SDS011;66330;52.166;9.978;2023-01-28T01:53:32;3.27;;;0.90;;
77276;SDS011;66330;52.166;9.978;2023-01-28T01:55:52;1.43;;;0.80;;
77276;SDS011;66330;52.166;9.978;2023-01-28T01:58:24;2.20;;;1.10;;
77276;SDS011;66330;52.166;9.978;2023-01-28T02:00:53;1.03;;;0.90;;
77276;SDS011;66330;52.166;9.978;2023-01-28T02:03:20;0.90;;;0.90;;
77276;SDS011;66330;52.166;9.978;2023-01-28T02:05:52;5.10;;;0.80;;
77276;SDS011;66330;52.166;9.978;2023-01-28T02:08:18;0.80;;;0.80;;
77276;SDS011;66330;52.166;9.978;2023-01-28T02:10:52;2.40;;;0.90;;
77276;SDS011;66330;52.166;9.978;2023-01-28T02:13:22;1.23;;;1.07;;
77276;SDS011;66330;52.166;9.978;2023-01-28T02:15:51;1.07;;;1.03;;
77276;SDS011;66330;52.166;9.978;2023-01-28T02:18:17;1.20;;;1.10;;
77276;SDS011;66330;52.166;9.978;2023-01-28T02:26:24;1.00;;;1.00;;
77276;SDS011;66330;52.166;9.978;2023-01-28T02:29:10;1.90;;;1.00;;
77276;SDS011;66330;52.166;9.978;2023-01-28T02:37:12;1.67;;;1.10;;
77276;SDS011;66330;52.166;9.978;2023-01-28T02:39:50;1.37;;;0.80;;
77276;SDS011;66330;52.166;9.978;2023-01-28T02:42:29;1.47;;;1.10;;
77276;SDS011;66330;52.166;9.978;2023-01-28T02:44:56;1.53;;;1.17;;
77276;SDS011;66330;52.166;9.978;2023-01-28T02:50:49;1.50;;;1.00;;
77276;SDS011;66330;52.166;9.978;2023-01-28T02:53:27;1.33;;;1.10;;
77276;SDS011;66330;52.166;9.978;2023-01-28T02:56:19;1.53;;;1.13;;
77276;SDS011;66330;52.166;9.978;2023-01-28T02:58:55;1.90;;;0.97;;
77276;SDS011;66330;52.166;9.978;2023-01-28T03:01:46;0.90;;;0.67;;
77276;SDS011;66330;52.166;9.978;2023-01-28T03:04:22;1.53;;;1.10;;
77276;SDS011;66330;52.166;9.978;2023-01-28T03:06:54;1.73;;;1.10;;
77276;SDS011;66330;52.166;9.978;2023-01-28T03:09:24;1.27;;;0.90;;
77276;SDS011;66330;52.166;9.978;2023-01-28T03:12:24;1.70;;;0.90;;
77276;SDS011;66330;52.166;9.978;2023-01-28T03:15:08;1.20;;;1.03;;
77276;SDS011;66330;52.166;9.978;2023-01-28T03:30:04;3.60;;;0.93;;
77276;SDS011;66330;52.166;9.978;2023-01-28T03:32:54;1.53;;;1.03;;
77276;SDS011;66330;52.166;9.978;2023-01-28T03:35:40;2.13;;;1.20;;
77276;SDS011;66330;52.166;9.978;2023-01-28T03:38:25;1.23;;;1.13;;
77276;SDS011;66330;52.166;9.978;2023-01-28T03:40:58;1.20;;;0.90;;
77276;SDS011;66330;52.166;9.978;2023-01-28T03:43:26;0.80;;;0.80;;
77276;SDS011;66330;52.166;9.978;2023-01-28T03:45:53;2.30;;;0.77;;
77276;SDS011;66330;52.166;9.978;2023-01-28T03:48:20;2.40;;;1.03;;
77276;SDS011;66330;52.166;9.978;2023-01-28T03:50:47;3.80;;;0.93;;
77276;SDS011;66330;52.166;9.978;2023-01-28T03:53:14;1.70;;;1.20;;
77276;SDS011;66330;52.166;9.978;2023-01-28T03:55:44;1.67;;;1.00;;
77276;SDS011;66330;52.166;9.978;2023-01-28T03:58:10;1.40;;;1.00;;
77276;SDS011;66330;52.166;9.978;2023-01-28T04:00:38;1.97;;;1.10;;
77276;SDS011;66330;52.166;9.978;2023-01-28T04:03:09;1.53;;;1.10;;
77276;SDS011;66330;52.166;9.978;2023-01-28T04:06:03;1.63;;;1.03;;
77276;SDS011;66330;52.166;9.978;2023-01-28T04:08:32;1.27;;;0.97;;
77276;SDS011;66330;52.166;9.978;2023-01-28T04:10:58;1.47;;;1.13;;
77276;SDS011;66330;52.166;9.978;2023-01-28T04:13:39;2.83;;;1.40;;
77276;SDS011;66330;52.166;9.978;2023-01-28T04:16:05;1.50;;;1.40;;
77276;SDS011;66330;52.166;9.978;2023-01-28T04:18:32;1.97;;;1.60;;
77276;SDS011;66330;52.166;9.978;2023-01-28T04:20:58;2.53;;;1.30;;
77276;SDS011;66330;52.166;9.978;2023-01-28T04:23:24;2.63;;;1.23;;
77276;SDS011;66330;52.166;9.978;2023-01-28T04:25:50;1.53;;;1.43;;
77276;SDS011;66330;52.166;9.978;2023-01-28T04:28:16;1.10;;;1.00;;
77276;SDS011;66330;52.166;9.978;2023-01-28T04:30:42;1.23;;;1.13;;
77276;SDS011;66330;52.166;9.978;2023-01-28T04:33:07;5.43;;;1.70;;
77276;SDS011;66330;52.166;9.978;2023-01-28T04:35:33;2.77;;;1.40;;
77276;SDS011;66330;52.166;9.978;2023-01-28T04:37:59;2.00;;;1.50;;
77276;SDS011;66330;52.166;9.978;2023-01-28T04:40:24;1.90;;;1.40;;
77276;SDS011;66330;52.166;9.978;2023-01-28T04:42:53;2.50;;;1.50;;
77276;SDS011;66330;52.166;9.978;2023-01-28T04:45:20;2.30;;;1.30;;
77276;SDS011;66330;52.166;9.978;2023-01-28T04:47:46;3.50;;;1.73;;
77276;SDS011;66330;52.166;9.978;2023-01-28T04:50:12;3.00;;;1.77;;
77276;SDS011;66330;52.166;9.978;2023-01-28T04:52:37;5.97;;;1.60;;
77276;SDS011;66330;52.166;9.978;2023-01-28T04:55:03;1.60;;;1.50;;
77276;SDS011;66330;52.166;9.978;2023-01-28T04:57:29;1.70;;;1.47;;
77276;SDS011;66330;52.166;9.978;2023-01-28T04:59:55;1.83;;;1.53;;
77276;SDS011;66330;52.166;9.978;2023-01-28T05:02:21;2.17;;;1.50;;
77276;SDS011;66330;52.166;9.978;2023-01-28T05:04:46;1.40;;;1.30;;
77276;SDS011;66330;52.166;9.978;2023-01-28T05:07:12;1.77;;;1.33;;
77276;SDS011;66330;52.166;9.978;2023-01-28T05:09:37;1.50;;;1.40;;
77276;SDS011;66330;52.166;9.978;2023-01-28T05:12:03;2.50;;;1.30;;
77276;SDS011;66330;52.166;9.978;2023-01-28T05:14:29;1.70;;;1.60;;
77276;SDS011;66330;52.166;9.978;2023-01-28T05:16:54;2.87;;;1.47;;
77276;SDS011;66330;52.166;9.978;2023-01-28T05:19:20;2.20;;;1.60;;
77276;SDS011;66330;52.166;9.978;2023-01-28T05:21:45;1.60;;;1.50;;
77276;SDS011;66330;52.166;9.978;2023-01-28T05:24:11;2.17;;;1.77;;
77276;SDS011;66330;52.166;9.978;2023-01-28T05:26:36;2.40;;;2.20;;
77276;SDS011;66330;52.166;9.978;2023-01-28T05:29:02;5.43;;;4.40;;
77276;SDS011;66330;52.166;9.978;2023-01-28T05:31:28;7.00;;;5.73;;
77276;SDS011;66330;52.166;9.978;2023-01-28T05:33:54;11.77;;;6.80;;
77276;SDS011;66330;52.166;9.978;2023-01-28T05:36:20;6.27;;;4.90;;
77276;SDS011;66330;52.166;9.978;2023-01-28T05:38:45;4.70;;;2.70;;
77276;SDS011;66330;52.166;9.978;2023-01-28T05:41:11;2.10;;;1.83;;
77276;SDS011;66330;52.166;9.978;2023-01-28T05:43:36;4.90;;;4.23;;
77276;SDS011;66330;52.166;9.978;2023-01-28T05:46:02;7.70;;;6.60;;
77276;SDS011;66330;52.166;9.978;2023-01-28T05:48:28;13.70;;;9.57;;
77276;SDS011;66330;52.166;9.978;2023-01-28T05:50:53;2.97;;;2.70;;
77276;SDS011;66330;52.166;9.978;2023-01-28T05:53:19;1.67;;;1.47;;
77276;SDS011;66330;52.166;9.978;2023-01-28T05:55:49;2.00;;;1.40;;
77276;SDS011;66330;52.166;9.978;2023-01-28T05:58:15;1.57;;;1.47;;
77276;SDS011;66330;52.166;9.978;2023-01-28T06:00:41;2.17;;;1.60;;
77276;SDS011;66330;52.166;9.978;2023-01-28T06:03:07;3.27;;;1.43;;
77276;SDS011;66330;52.166;9.978;2023-01-28T06:05:33;1.57;;;1.47;;
77276;SDS011;66330;52.166;9.978;2023-01-28T06:07:58;1.73;;;1.63;;
77276;SDS011;66330;52.166;9.978;2023-01-28T06:10:24;2.57;;;1.50;;
77276;SDS011;66330;52.166;9.978;2023-01-28T06:12:49;1.30;;;1.20;;
77276;SDS011;66330;52.166;9.978;2023-01-28T06:15:15;1.37;;;1.27;;
77276;SDS011;66330;52.166;9.978;2023-01-28T06:17:41;1.63;;;1.53;;
77276;SDS011;66330;52.166;9.978;2023-01-28T06:20:06;2.93;;;2.63;;
77276;SDS011;66330;52.166;9.978;2023-01-28T06:22:33;3.03;;;2.73;;
77276;SDS011;66330;52.166;9.978;2023-01-28T06:24:58;3.30;;;2.00;;
77276;SDS011;66330;52.166;9.978;2023-01-28T06:27:24;2.00;;;1.70;;
77276;SDS011;66330;52.166;9.978;2023-01-28T06:29:50;2.10;;;1.93;;
77276;SDS011;66330;52.166;9.978;2023-01-28T06:32:15;2.37;;;1.60;;
77276;SDS011;66330;52.166;9.978;2023-01-28T06:34:41;1.60;;;1.30;;
77276;SDS011;66330;52.166;9.978;2023-01-28T06:37:06;2.07;;;1.60;;
77276;SDS011;66330;52.166;9.978;2023-01-28T06:39:32;2.00;;;1.90;;
77276;SDS011;66330;52.166;9.978;2023-01-28T06:41:58;1.33;;;1.23;;
77276;SDS011;66330;52.166;9.978;2023-01-28T06:44:24;4.07;;;2.03;;
77276;SDS011;66330;52.166;9.978;2023-01-28T06:46:50;2.03;;;1.60;;
77276;SDS011;66330;52.166;9.978;2023-01-28T06:49:16;3.17;;;1.70;;
77276;SDS011;66330;52.166;9.978;2023-01-28T06:51:41;1.60;;;1.50;;
77276;SDS011;66330;52.166;9.978;2023-01-28T06:54:07;1.30;;;1.13;;
77276;SDS011;66330;52.166;9.978;2023-01-28T06:56:32;4.13;;;1.90;;
77276;SDS011;66330;52.166;9.978;2023-01-28T06:58:58;1.60;;;1.43;;
77276;SDS011;66330;52.166;9.978;2023-01-28T07:01:24;4.80;;;1.40;;
77276;SDS011;66330;52.166;9.978;2023-01-28T07:03:49;1.53;;;1.07;;
77276;SDS011;66330;52.166;9.978;2023-01-28T07:06:15;5.20;;;1.80;;
77276;SDS011;66330;52.166;9.978;2023-01-28T07:08:41;1.50;;;1.40;;
77276;SDS011;66330;52.166;9.978;2023-01-28T07:11:07;1.63;;;1.47;;
77276;SDS011;66330;52.166;9.978;2023-01-28T07:13:32;2.30;;;1.60;;
77276;SDS011;66330;52.166;9.978;2023-01-28T07:15:58;4.27;;;2.47;;
77276;SDS011;66330;52.166;9.978;2023-01-28T07:18:24;3.97;;;3.67;;
77276;SDS011;66330;52.166;9.978;2023-01-28T07:20:50;3.30;;;2.83;;
77276;SDS011;66330;52.166;9.978;2023-01-28T07:23:15;3.27;;;3.07;;
77276;SDS011;66330;52.166;9.978;2023-01-28T07:25:41;3.40;;;3.20;;
77276;SDS011;66330;52.166;9.978;2023-01-28T07:28:06;4.13;;;3.70;;
77276;SDS011;66330;52.166;9.978;2023-01-28T07:30:32;11.37;;;9.13;;
77276;SDS011;66330;52.166;9.978;2023-01-28T07:32:58;4.30;;;3.87;;
77276;SDS011;66330;52.166;9.978;2023-01-28T07:35:24;5.93;;;5.37;;
77276;SDS011;66330;52.166;9.978;2023-01-28T07:37:51;4.80;;;3.40;;
77276;SDS011;66330;52.166;9.978;2023-01-28T07:40:16;3.33;;;2.57;;
77276;SDS011;66330;52.166;9.978;2023-01-28T07:42:42;1.90;;;1.80;;
77276;SDS011;66330;52.166;9.978;2023-01-28T07:45:08;3.27;;;1.77;;
77276;SDS011;66330;52.166;9.978;2023-01-28T07:47:34;2.10;;;1.90;;
77276;SDS011;66330;52.166;9.978;2023-01-28T07:49:59;1.73;;;1.30;;
77276;SDS011;66330;52.166;9.978;2023-01-28T07:52:25;1.73;;;1.60;;
77276;SDS011;66330;52.166;9.978;2023-01-28T07:54:50;6.80;;;5.47;;
77276;SDS011;66330;52.166;9.978;2023-01-28T07:57:16;4.87;;;4.47;;
77276;SDS011;66330;52.166;9.978;2023-01-28T07:59:47;5.53;;;5.03;;
77276;SDS011;66330;52.166;9.978;2023-01-28T08:02:14;4.57;;;2.90;;
77276;SDS011;66330;52.166;9.978;2023-01-28T08:04:39;3.87;;;2.00;;
77276;SDS011;66330;52.166;9.978;2023-01-28T08:07:05;1.73;;;1.63;;
77276;SDS011;66330;52.166;9.978;2023-01-28T08:09:31;2.33;;;1.57;;
77276;SDS011;66330;52.166;9.978;2023-01-28T08:11:58;2.40;;;1.57;;
77276;SDS011;66330;52.166;9.978;2023-01-28T08:14:24;2.37;;;1.70;;
77276;SDS011;66330;52.166;9.978;2023-01-28T08:16:49;1.60;;;1.50;;
77276;SDS011;66330;52.166;9.978;2023-01-28T08:19:15;2.20;;;1.30;;
77276;SDS011;66330;52.166;9.978;2023-01-28T08:21:42;2.17;;;1.80;;
77276;SDS011;66330;52.166;9.978;2023-01-28T08:24:07;3.13;;;1.90;;
77276;SDS011;66330;52.166;9.978;2023-01-28T08:26:33;2.00;;;1.90;;
77276;SDS011;66330;52.166;9.978;2023-01-28T08:28:59;1.83;;;1.73;;
77276;SDS011;66330;52.166;9.978;2023-01-28T08:31:24;2.60;;;2.00;;
77276;SDS011;66330;52.166;9.978;2023-01-28T08:33:51;1.47;;;1.37;;
77276;SDS011;66330;52.166;9.978;2023-01-28T08:36:16;4.33;;;1.93;;
77276;SDS011;66330;52.166;9.978;2023-01-28T08:38:42;2.57;;;1.93;;
77276;SDS011;66330;52.166;9.978;2023-01-28T08:41:08;1.87;;;1.77;;
77276;SDS011;66330;52.166;9.978;2023-01-28T08:43:33;2.03;;;1.87;;
77276;SDS011;66330;52.166;9.978;2023-01-28T08:45:59;1.93;;;1.67;;
77276;SDS011;66330;52.166;9.978;2023-01-28T08:48:24;2.03;;;1.93;;
77276;SDS011;66330;52.166;9.978;2023-01-28T08:50:50;3.03;;;1.80;;
77276;SDS011;66330;52.166;9.978;2023-01-28T08:53:17;1.50;;;1.40;;
77276;SDS011;66330;52.166;9.978;2023-01-28T08:55:46;1.87;;;1.73;;
77276;SDS011;66330;52.166;9.978;2023-01-28T08:58:12;1.93;;;1.70;;
77276;SDS011;66330;52.166;9.978;2023-01-28T09:00:40;2.00;;;1.43;;
77276;SDS011;66330;52.166;9.978;2023-01-28T09:03:07;2.27;;;1.83;;
77276;SDS011;66330;52.166;9.978;2023-01-28T09:05:33;1.43;;;1.30;;
77276;SDS011;66330;52.166;9.978;2023-01-28T09:08:00;2.00;;;1.53;;
77276;SDS011;66330;52.166;9.978;2023-01-28T09:10:27;1.90;;;1.63;;
77276;SDS011;66330;52.166;9.978;2023-01-28T09:12:53;1.73;;;1.23;;
77276;SDS011;66330;52.166;9.978;2023-01-28T09:15:18;1.80;;;1.60;;
77276;SDS011;66330;52.166;9.978;2023-01-28T09:17:44;2.43;;;1.53;;
77276;SDS011;66330;52.166;9.978;2023-01-28T09:20:10;1.77;;;1.67;;
77276;SDS011;66330;52.166;9.978;2023-01-28T09:22:36;2.10;;;1.40;;
77276;SDS011;66330;52.166;9.978;2023-01-28T09:25:02;1.20;;;1.20;;
77276;SDS011;66330;52.166;9.978;2023-01-28T09:27:28;1.97;;;1.80;;
77276;SDS011;66330;52.166;9.978;2023-01-28T09:29:53;2.40;;;1.30;;
77276;SDS011;66330;52.166;9.978;2023-01-28T09:32:19;1.50;;;1.40;;
77276;SDS011;66330;52.166;9.978;2023-01-28T09:34:45;2.90;;;2.10;;
77276;SDS011;66330;52.166;9.978;2023-01-28T09:37:10;4.03;;;1.40;;
77276;SDS011;66330;52.166;9.978;2023-01-28T09:39:36;1.67;;;1.40;;
77276;SDS011;66330;52.166;9.978;2023-01-28T09:47:37;1.50;;;1.40;;
77276;SDS011;66330;52.166;9.978;2023-01-28T09:50:07;1.70;;;1.60;;
77276;SDS011;66330;52.166;9.978;2023-01-28T09:52:38;1.70;;;1.60;;
77276;SDS011;66330;52.166;9.978;2023-01-28T09:55:11;1.53;;;1.43;;
77276;SDS011;66330;52.166;9.978;2023-01-28T09:57:56;2.43;;;1.50;;
77276;SDS011;66330;52.166;9.978;2023-01-28T10:00:28;2.50;;;1.27;;
77276;SDS011;66330;52.166;9.978;2023-01-28T10:05:55;3.03;;;1.90;;
77276;SDS011;66330;52.166;9.978;2023-01-28T10:08:41;2.00;;;1.63;;
77276;SDS011;66330;52.166;9.978;2023-01-28T10:11:37;4.53;;;1.50;;
77276;SDS011;66330;52.166;9.978;2023-01-28T10:14:12;1.40;;;1.30;;
77276;SDS011;66330;52.166;9.978;2023-01-28T10:19:51;2.27;;;1.70;;
77276;SDS011;66330;52.166;9.978;2023-01-28T10:22:22;1.73;;;1.63;;
77276;SDS011;66330;52.166;9.978;2023-01-28T10:24:56;5.50;;;2.13;;
77276;SDS011;66330;52.166;9.978;2023-01-28T10:27:30;5.73;;;2.23;;
77276;SDS011;66330;52.166;9.978;2023-01-28T10:29:57;1.90;;;1.80;;
77276;SDS011;66330;52.166;9.978;2023-01-28T10:34:58;1.93;;;1.73;;
77276;SDS011;66330;52.166;9.978;2023-01-28T10:37:25;4.10;;;1.77;;
77276;SDS011;66330;52.166;9.978;2023-01-28T10:39:54;2.20;;;2.00;;
77276;SDS011;66330;52.166;9.978;2023-01-28T10:42:27;2.03;;;1.93;;
77276;SDS011;66330;52.166;9.978;2023-01-28T10:47:38;1.90;;;1.80;;
77276;SDS011;66330;52.166;9.978;2023-01-28T10:50:21;5.13;;;2.50;;
77276;SDS011;66330;52.166;9.978;2023-01-28T10:52:52;3.10;;;2.40;;
77276;SDS011;66330;52.166;9.978;2023-01-28T10:55:18;4.80;;;2.17;;
77276;SDS011;66330;52.166;9.978;2023-01-28T10:57:44;3.50;;;2.30;;
77276;SDS011;66330;52.166;9.978;2023-01-28T11:00:11;2.20;;;1.73;;
77276;SDS011;66330;52.166;9.978;2023-01-28T11:02:47;3.60;;;2.60;;
77276;SDS011;66330;52.166;9.978;2023-01-28T11:05:14;2.00;;;1.80;;
77276;SDS011;66330;52.166;9.978;2023-01-28T11:07:42;3.80;;;2.20;;
77276;SDS011;66330;52.166;9.978;2023-01-28T11:10:22;2.77;;;2.50;;
77276;SDS011;66330;52.166;9.978;2023-01-28T11:13:14;2.77;;;2.50;;
77276;SDS011;66330;52.166;9.978;2023-01-28T11:15:45;3.60;;;2.23;;
77276;SDS011;66330;52.166;9.978;2023-01-28T11:18:25;4.97;;;3.03;;
77276;SDS011;66330;52.166;9.978;2023-01-28T11:20:57;2.23;;;2.07;;
77276;SDS011;66330;52.166;9.978;2023-01-28T11:23:26;2.50;;;2.30;;
77276;SDS011;66330;52.166;9.978;2023-01-28T11:25:58;3.00;;;2.80;;
77276;SDS011;66330;52.166;9.978;2023-01-28T11:28:29;4.00;;;3.03;;
77276;SDS011;66330;52.166;9.978;2023-01-28T11:30:56;3.87;;;3.40;;
77276;SDS011;66330;52.166;9.978;2023-01-28T11:34:10;13.90;;;12.50;;
77276;SDS011;66330;52.166;9.978;2023-01-28T11:36:14;11.50;;;10.30;;
77276;SDS011;66330;52.166;9.978;2023-01-28T11:38:52;5.77;;;5.27;;
77276;SDS011;66330;52.166;9.978;2023-01-28T11:41:23;7.63;;;6.93;;
77276;SDS011;66330;52.166;9.978;2023-01-28T11:43:52;9.30;;;8.30;;
77276;SDS011;66330;52.166;9.978;2023-01-28T12:00:34;4.73;;;3.80;;
77276;SDS011;66330;52.166;9.978;2023-01-28T12:03:37;4.20;;;3.90;;
77276;SDS011;66330;52.166;9.978;2023-01-28T12:09:22;4.13;;;3.83;;
77276;SDS011;66330;52.166;9.978;2023-01-28T12:12:07;6.50;;;4.17;;
77276;SDS011;66330;52.166;9.978;2023-01-28T12:20:27;6.07;;;3.90;;
77276;SDS011;66330;52.166;9.978;2023-01-28T12:23:13;3.90;;;3.60;;
77276;SDS011;66330;52.166;9.978;2023-01-28T12:26:02;3.60;;;3.30;;
77276;SDS011;66330;52.166;9.978;2023-01-28T12:42:40;5.43;;;4.33;;
77276;SDS011;66330;52.166;9.978;2023-01-28T12:45:22;4.50;;;4.20;;
77276;SDS011;66330;52.166;9.978;2023-01-28T12:47:53;3.93;;;3.63;;
77276;SDS011;66330;52.166;9.978;2023-01-28T12:50:35;5.53;;;5.00;;
77276;SDS011;66330;52.166;9.978;2023-01-28T12:55:44;4.50;;;4.20;;
77276;SDS011;66330;52.166;9.978;2023-01-28T12:58:14;4.90;;;3.93;;
77276;SDS011;66330;52.166;9.978;2023-01-28T13:00:47;4.50;;;4.20;;
77276;SDS011;66330;52.166;9.978;2023-01-28T13:05:54;4.80;;;4.20;;
77276;SDS011;66330;52.166;9.978;2023-01-28T13:08:27;4.93;;;4.53;;
77276;SDS011;66330;52.166;9.978;2023-01-28T13:10:54;4.90;;;4.60;;
77276;SDS011;66330;52.166;9.978;2023-01-28T13:13:35;4.73;;;4.33;;
77276;SDS011;66330;52.166;9.978;2023-01-28T13:16:04;4.73;;;4.20;;
77276;SDS011;66330;52.166;9.978;2023-01-28T13:21:04;3.80;;;3.50;;
77276;SDS011;66330;52.166;9.978;2023-01-28T13:24:18;4.30;;;3.73;;
77276;SDS011;66330;52.166;9.978;2023-01-28T13:31:50;4.60;;;4.10;;
77276;SDS011;66330;52.166;9.978;2023-01-28T13:36:58;4.63;;;4.20;;
77276;SDS011;66330;52.166;9.978;2023-01-28T13:39:27;5.30;;;4.50;;
77276;SDS011;66330;52.166;9.978;2023-01-28T13:41:55;4.57;;;4.27;;
77276;SDS011;66330;52.166;9.978;2023-01-28T13:44:44;4.77;;;4.37;;
77276;SDS011;66330;52.166;9.978;2023-01-28T13:52:40;3.90;;;3.63;;
77276;SDS011;66330;52.166;9.978;2023-01-28T13:57:43;3.83;;;3.63;;
77276;SDS011;66330;52.166;9.978;2023-01-28T14:00:54;4.40;;;4.10;;
77276;SDS011;66330;52.166;9.978;2023-01-28T14:11:58;3.50;;;3.30;;
77276;SDS011;66330;52.166;9.978;2023-01-28T14:19:49;3.40;;;3.10;;
77276;SDS011;66330;52.166;9.978;2023-01-28T14:22:16;3.90;;;3.60;;
77276;SDS011;66330;52.166;9.978;2023-01-28T14:24:44;4.00;;;3.53;;
77276;SDS011;66330;52.166;9.978;2023-01-28T14:27:21;3.40;;;3.10;;
77276;SDS011;66330;52.166;9.978;2023-01-28T14:32:27;3.83;;;3.40;;
77276;SDS011;66330;52.166;9.978;2023-01-28T14:34:55;3.90;;;3.53;;
77276;SDS011;66330;52.166;9.978;2023-01-28T14:37:24;3.60;;;3.33;;
77276;SDS011;66330;52.166;9.978;2023-01-28T14:40:37;3.10;;;2.90;;
77276;SDS011;66330;52.166;9.978;2023-01-28T14:42:50;4.37;;;3.40;;
77276;SDS011;66330;52.166;9.978;2023-01-28T14:53:33;3.67;;;3.37;;
77276;SDS011;66330;52.166;9.978;2023-01-28T14:59:15;3.40;;;3.10;;
77276;SDS011;66330;52.166;9.978;2023-01-28T15:01:42;3.50;;;3.20;;
77276;SDS011;66330;52.166;9.978;2023-01-28T15:04:22;3.40;;;3.10;;
77276;SDS011;66330;52.166;9.978;2023-01-28T15:06:57;3.17;;;2.87;;
77276;SDS011;66330;52.166;9.978;2023-01-28T15:09:39;6.10;;;4.00;;
77276;SDS011;66330;52.166;9.978;2023-01-28T15:12:05;3.70;;;2.77;;
77276;SDS011;66330;52.166;9.978;2023-01-28T15:14:32;3.97;;;3.60;;
77276;SDS011;66330;52.166;9.978;2023-01-28T15:16:57;3.80;;;3.47;;
77276;SDS011;66330;52.166;9.978;2023-01-28T15:19:33;4.90;;;3.47;;
77276;SDS011;66330;52.166;9.978;2023-01-28T15:22:01;5.37;;;3.10;;
77276;SDS011;66330;52.166;9.978;2023-01-28T15:24:30;3.20;;;2.90;;
77276;SDS011;66330;52.166;9.978;2023-01-28T15:26:58;7.87;;;3.93;;
77276;SDS011;66330;52.166;9.978;2023-01-28T15:29:25;4.03;;;3.60;;
77276;SDS011;66330;52.166;9.978;2023-01-28T15:31:51;4.60;;;3.77;;
77276;SDS011;66330;52.166;9.978;2023-01-28T15:34:17;3.67;;;3.37;;
77276;SDS011;66330;52.166;9.978;2023-01-28T15:36:44;4.40;;;3.60;;
77276;SDS011;66330;52.166;9.978;2023-01-28T15:39:15;5.10;;;3.70;;
77276;SDS011;66330;52.166;9.978;2023-01-28T15:41:43;3.80;;;3.50;;
77276;SDS011;66330;52.166;9.978;2023-01-28T15:47:13;3.70;;;3.27;;
77276;SDS011;66330;52.166;9.978;2023-01-28T15:49:44;5.30;;;4.27;;
77276;SDS011;66330;52.166;9.978;2023-01-28T15:52:12;6.77;;;4.20;;
77276;SDS011;66330;52.166;9.978;2023-01-28T15:54:42;4.20;;;3.80;;
77276;SDS011;66330;52.166;9.978;2023-01-28T15:57:18;3.87;;;3.57;;
77276;SDS011;66330;52.166;9.978;2023-01-28T15:59:45;4.83;;;4.10;;
77276;SDS011;66330;52.166;9.978;2023-01-28T16:02:21;4.53;;;4.20;;
77276;SDS011;66330;52.166;9.978;2023-01-28T16:05:02;4.67;;;4.17;;
77276;SDS011;66330;52.166;9.978;2023-01-28T16:07:29;4.83;;;4.33;;
77276;SDS011;66330;52.166;9.978;2023-01-28T16:09:57;5.63;;;4.93;;
77276;SDS011;66330;52.166;9.978;2023-01-28T16:12:25;5.17;;;4.60;;
77276;SDS011;66330;52.166;9.978;2023-01-28T16:14:57;5.73;;;4.93;;
77276;SDS011;66330;52.166;9.978;2023-01-28T16:17:30;4.77;;;4.20;;
77276;SDS011;66330;52.166;9.978;2023-01-28T16:20:05;5.60;;;5.10;;
77276;SDS011;66330;52.166;9.978;2023-01-28T16:22:43;6.03;;;5.47;;
77276;SDS011;66330;52.166;9.978;2023-01-28T16:25:28;5.70;;;4.70;;
77276;SDS011;66330;52.166;9.978;2023-01-28T16:28:08;6.03;;;5.50;;
77276;SDS011;66330;52.166;9.978;2023-01-28T16:30:40;5.53;;;5.03;;
77276;SDS011;66330;52.166;9.978;2023-01-28T16:33:15;6.97;;;4.60;;
77276;SDS011;66330;52.166;9.978;2023-01-28T16:35:46;7.87;;;5.17;;
77276;SDS011;66330;52.166;9.978;2023-01-28T16:38:12;5.60;;;4.77;;
77276;SDS011;66330;52.166;9.978;2023-01-28T16:40:41;5.37;;;4.97;;
77276;SDS011;66330;52.166;9.978;2023-01-28T16:43:09;6.60;;;5.47;;
77276;SDS011;66330;52.166;9.978;2023-01-28T16:45:36;7.53;;;6.40;;
77276;SDS011;66330;52.166;9.978;2023-01-28T16:48:01;7.30;;;6.00;;
77276;SDS011;66330;52.166;9.978;2023-01-28T16:50:27;6.60;;;5.80;;
77276;SDS011;66330;52.166;9.978;2023-01-28T16:52:53;6.67;;;6.03;;
77276;SDS011;66330;52.166;9.978;2023-01-28T16:55:20;7.47;;;6.63;;
77276;SDS011;66330;52.166;9.978;2023-01-28T16:57:48;10.13;;;6.87;;
77276;SDS011;66330;52.166;9.978;2023-01-28T17:00:17;7.60;;;6.90;;
77276;SDS011;66330;52.166;9.978;2023-01-28T17:02:48;7.30;;;6.60;;
77276;SDS011;66330;52.166;9.978;2023-01-28T17:05:14;9.17;;;8.27;;
77276;SDS011;66330;52.166;9.978;2023-01-28T17:07:40;8.40;;;7.60;;
77276;SDS011;66330;52.166;9.978;2023-01-28T17:10:06;14.03;;;11.83;;
77276;SDS011;66330;52.166;9.978;2023-01-28T17:12:32;12.73;;;11.43;;
77276;SDS011;66330;52.166;9.978;2023-01-28T17:14:58;14.40;;;12.87;;
77276;SDS011;66330;52.166;9.978;2023-01-28T17:17:23;14.07;;;12.67;;
77276;SDS011;66330;52.166;9.978;2023-01-28T17:19:49;17.90;;;15.60;;